Terminal Aerodrome Forecast
Issued by NWS

Home | Current Version | Previous Version | Text Only | Print | Product List | Glossary On
Versions: 1 2 3 4 5 6 7 8 9 10 11 12 13 14 15 16 17 18
000
FTUS43 KDLH 241700
TAFHIB
TAF
KHIB 241736Z 2418/2518 32017G25KT P6SM SCT025
      TEMPO 2419/2420 2SM -SN BLSN BKN025
     FM242000 32016G25KT P6SM VCSH BKN025
      TEMPO 2420/2423 2SM -SHSN BLSN
     FM242300 32011KT P6SM SCT025
     FM250600 33005KT P6SM SCT130
     FM251500 35007KT P6SM SCT130=

USA.gov is the U.S. government's official web portal to all federal, state and local government web resources and services.